Time;durP1;ratioP1;P1;durP2;ratioP2;P2;SDS_P1;SDS_P2;PMS_P1;PMS_P2;Temp;Humidity;BMP_temperature;BMP_pressure;BME280_temperature;BME280_humidity;BME280_pressure;Samples;Min_cycle;Max_cycle;Signal;HPM_P1;HPM_P2
2021/08/15 00:00:35;;;;;;;;;28.50;22.50;;;;;22.41;50.87;101407.34;4977450;28;45706;-75
2021/08/15 00:03:01;;;;;;;;;30.50;26.50;;;;;22.37;50.38;101407.97;4987486;28;45446;-74
2021/08/15 00:05:27;;;;;;;;;33.00;27.25;;;;;22.31;50.45;101404.28;4989021;28;45634;-75
2021/08/15 00:07:53;;;;;;;;;32.50;28.25;;;;;22.28;50.98;101402.00;4985599;28;46368;-69
2021/08/15 00:10:19;;;;;;;;;35.75;31.75;;;;;22.23;52.19;101407.16;4987653;28;45622;-68
2021/08/15 00:12:44;;;;;;;;;34.75;32.00;;;;;22.17;51.47;101402.63;4988447;28;45678;-72
2021/08/15 00:15:11;;;;;;;;;39.75;32.75;;;;;22.14;52.33;101395.78;4981910;28;45488;-75
2021/08/15 00:17:37;;;;;;;;;42.25;34.00;;;;;22.10;52.03;101400.75;4985448;28;45526;-73
2021/08/15 00:20:03;;;;;;;;;36.75;31.25;;;;;22.05;53.43;101392.47;4985791;28;45451;-73
2021/08/15 00:22:29;;;;;;;;;41.50;32.25;;;;;22.00;52.76;101392.28;4988535;28;45485;-68
2021/08/15 00:24:55;;;;;;;;;34.75;29.50;;;;;21.96;52.72;101388.38;4985528;28;45434;-68
2021/08/15 00:27:20;;;;;;;;;34.25;30.75;;;;;21.92;52.98;101384.44;4987088;28;45432;-73
2021/08/15 00:29:46;;;;;;;;;36.00;27.00;;;;;21.88;53.16;101383.19;4991337;28;45492;-68
2021/08/15 00:32:11;;;;;;;;;28.50;27.50;;;;;21.84;54.15;101377.41;4985344;28;45498;-68
2021/08/15 00:34:37;;;;;;;;;25.25;23.75;;;;;21.79;53.91;101385.28;4990819;28;45542;-73
2021/08/15 00:37:02;;;;;;;;;27.25;23.25;;;;;21.76;54.39;101379.47;4984537;28;45569;-68
2021/08/15 00:39:27;;;;;;;;;22.50;19.25;;;;;21.71;54.27;101388.19;4985882;28;45591;-72
2021/08/15 00:41:53;;;;;;;;;22.25;20.00;;;;;21.67;54.62;101378.84;4993298;28;45442;-73
2021/08/15 00:44:18;;;;;;;;;20.75;19.25;;;;;21.63;54.31;101375.75;4987229;28;45802;-68
2021/08/15 00:46:43;;;;;;;;;20.00;15.00;;;;;21.62;54.47;101381.34;4986167;28;46480;-73
2021/08/15 00:49:09;;;;;;;;;16.25;13.00;;;;;21.59;54.67;101379.06;4984784;28;45563;-72
2021/08/15 00:51:35;;;;;;;;;20.25;18.25;;;;;21.56;54.87;101379.47;4996057;28;45519;-73
2021/08/15 00:54:00;;;;;;;;;20.25;18.75;;;;;21.50;55.25;101377.63;4970011;28;45686;-68
2021/08/15 00:56:27;;;;;;;;;25.50;17.25;;;;;21.45;55.00;101376.34;4992732;28;45459;-72
2021/08/15 00:58:52;;;;;;;;;19.75;17.75;;;;;21.44;56.03;101373.91;4993930;28;45668;-68
2021/08/15 01:01:18;;;;;;;;;20.50;17.25;;;;;21.40;55.67;101373.47;4988392;28;45527;-74
2021/08/15 01:03:44;;;;;;;;;19.25;18.00;;;;;21.33;56.14;101372.59;4990816;28;45626;-69
2021/08/15 01:06:10;;;;;;;;;17.25;16.00;;;;;21.30;55.84;101369.50;4997083;28;45457;-67
2021/08/15 01:08:37;;;;;;;;;18.75;16.25;;;;;21.26;56.43;101375.28;4987813;28;45578;-67
2021/08/15 01:11:06;;;;;;;;;23.00;17.25;;;;;21.23;56.75;101375.69;4977655;28;45527;-72
2021/08/15 01:13:33;;;;;;;;;20.50;16.00;;;;;21.19;56.56;101376.28;4983544;28;45546;-72
2021/08/15 01:16:03;;;;;;;;;23.50;19.75;;;;;21.15;56.75;101367.81;4986726;28;45626;-67
2021/08/15 01:18:34;;;;;;;;;16.75;15.00;;;;;21.10;57.19;101364.91;5006200;28;45543;-72
2021/08/15 01:21:08;;;;;;;;;18.75;18.25;;;;;21.05;57.33;101362.00;5010186;28;45569;-71
2021/08/15 01:23:35;;;;;;;;;18.00;17.25;;;;;21.00;57.46;101359.94;5006472;28;45625;-68
2021/08/15 01:26:02;;;;;;;;;21.00;19.50;;;;;20.98;57.29;101362.00;5007057;28;45706;-71
2021/08/15 01:28:28;;;;;;;;;22.50;20.00;;;;;20.95;57.01;101356.22;5005013;28;45665;-74
2021/08/15 01:30:54;;;;;;;;;20.50;18.75;;;;;20.90;57.50;101358.69;5009477;28;45511;-74
2021/08/15 01:33:27;;;;;;;;;23.00;20.50;;;;;20.85;57.81;101356.59;5006034;28;45602;-68
2021/08/15 01:35:54;;;;;;;;;21.25;17.25;;;;;20.80;58.38;101349.13;5008136;28;46075;-74
2021/08/15 01:38:21;;;;;;;;;12.25;10.50;;;;;20.75;57.92;101351.59;5005990;28;45609;-69
2021/08/15 01:40:47;;;;;;;;;23.50;21.75;;;;;20.70;58.33;101351.38;5006133;28;45645;-69
2021/08/15 01:43:13;;;;;;;;;22.25;21.75;;;;;20.67;59.08;101346.38;5003961;28;45435;-69
2021/08/15 01:45:38;;;;;;;;;21.50;19.75;;;;;20.64;58.73;101341.41;4997480;28;46569;-69
2021/08/15 01:48:04;;;;;;;;;19.75;19.75;;;;;20.58;58.72;101339.56;5005116;28;45598;-74
2021/08/15 01:50:29;;;;;;;;;17.00;16.75;;;;;20.55;59.44;101345.34;5000997;28;45332;-69
2021/08/15 01:52:54;;;;;;;;;19.00;16.25;;;;;20.50;59.02;101348.59;5007463;28;46698;-74
2021/08/15 01:55:20;;;;;;;;;22.50;21.75;;;;;20.46;58.47;101341.13;5006157;28;46282;-69
2021/08/15 01:57:45;;;;;;;;;22.00;16.25;;;;;20.43;59.54;101344.22;5010333;28;45542;-74
2021/08/15 02:00:11;;;;;;;;;17.75;16.75;;;;;20.38;58.44;101334.06;5008896;28;45470;-75
2021/08/15 02:02:40;;;;;;;;;23.25;18.25;;;;;20.34;59.43;101330.13;5002215;28;45542;-73
2021/08/15 02:05:06;;;;;;;;;23.75;18.50;;;;;20.31;59.59;101327.84;4987969;28;48204;-75
2021/08/15 02:07:31;;;;;;;;;18.00;16.25;;;;;20.29;59.92;101324.53;5005445;28;45586;-68
2021/08/15 02:09:57;;;;;;;;;21.50;19.50;;;;;20.26;60.52;101331.13;5003442;28;45456;-73
2021/08/15 02:12:22;;;;;;;;;21.00;18.75;;;;;20.17;60.62;101325.06;5007202;28;45569;-70
2021/08/15 02:14:47;;;;;;;;;22.25;18.50;;;;;20.12;60.87;101329.38;4998530;28;45651;-68
2021/08/15 02:17:13;;;;;;;;;23.00;20.50;;;;;20.08;61.22;101322.75;5004822;28;45695;-69
2021/08/15 02:19:38;;;;;;;;;20.00;18.75;;;;;20.07;60.80;101321.09;5004833;28;45659;-75
2021/08/15 02:22:04;;;;;;;;;25.50;19.00;;;;;20.04;60.93;101327.69;4993317;28;45488;-74
2021/08/15 02:24:29;;;;;;;;;18.75;18.25;;;;;20.04;60.68;101318.81;4998471;28;46473;-73
2021/08/15 02:26:55;;;;;;;;;21.75;19.00;;;;;20.04;60.96;101322.31;5005643;28;45457;-75
2021/08/15 02:29:20;;;;;;;;;16.25;15.50;;;;;20.02;60.52;101310.13;4999134;28;45467;-69
2021/08/15 02:31:45;;;;;;;;;22.50;19.75;;;;;19.99;60.89;101311.38;5010101;28;45437;-73
2021/08/15 02:34:11;;;;;;;;;24.00;20.50;;;;;19.95;61.35;101302.91;5003551;28;48178;-69
2021/08/15 02:36:37;;;;;;;;;22.25;19.25;;;;;19.93;61.30;101304.94;5011189;28;45840;-74
2021/08/15 02:39:02;;;;;;;;;22.50;18.25;;;;;19.92;61.27;101303.25;5010249;28;45496;-74
2021/08/15 02:41:28;;;;;;;;;17.50;16.25;;;;;19.90;61.67;101301.81;5002285;28;45546;-69
2021/08/15 02:43:53;;;;;;;;;23.50;19.75;;;;;19.91;61.69;101301.63;5003062;28;46128;-68
2021/08/15 02:46:19;;;;;;;;;16.75;14.25;;;;;19.89;61.60;101292.13;5000652;28;45917;-69
2021/08/15 02:48:44;;;;;;;;;20.50;17.75;;;;;19.86;62.21;101296.03;4997462;28;45760;-69
2021/08/15 02:51:09;;;;;;;;;22.25;19.75;;;;;19.84;62.37;101292.69;4999772;28;45758;-68
2021/08/15 02:53:34;;;;;;;;;20.50;19.50;;;;;19.82;63.10;101292.06;5003447;28;45463;-74
2021/08/15 02:56:00;;;;;;;;;21.75;19.50;;;;;19.79;62.09;101292.47;5007917;28;45538;-68
2021/08/15 02:58:25;;;;;;;;;20.75;17.75;;;;;19.78;61.92;101285.44;5008000;28;45602;-69
2021/08/15 03:00:53;;;;;;;;;22.00;20.75;;;;;19.71;62.83;101274.69;5004970;28;45410;-69
2021/08/15 03:03:18;;;;;;;;;21.00;18.75;;;;;19.69;63.25;101276.72;5004926;28;45565;-69
2021/08/15 03:05:43;;;;;;;;;24.00;18.25;;;;;19.69;63.10;101281.25;5005016;28;45484;-69
2021/08/15 03:08:09;;;;;;;;;22.50;19.50;;;;;19.66;62.57;101270.91;5002180;28;45569;-72
2021/08/15 03:10:35;;;;;;;;;20.75;17.00;;;;;19.65;63.06;101271.91;5003435;28;45482;-69
2021/08/15 03:13:00;;;;;;;;;22.00;18.00;;;;;19.63;62.63;101265.91;5007233;28;45482;-69
2021/08/15 03:15:25;;;;;;;;;18.00;16.25;;;;;19.62;62.99;101265.09;5002750;28;45605;-73
2021/08/15 03:17:51;;;;;;;;;23.75;22.50;;;;;19.62;64.18;101270.47;5004074;28;45611;-74
2021/08/15 03:20:16;;;;;;;;;26.00;19.00;;;;;19.60;64.33;101269.81;5005331;28;45621;-68
2021/08/15 03:22:41;;;;;;;;;22.25;17.50;;;;;19.61;64.83;101273.31;5003913;28;46439;-68
2021/08/15 03:25:07;;;;;;;;;16.75;14.75;;;;;19.59;64.28;101262.00;5004918;28;45517;-72
2021/08/15 03:27:33;;;;;;;;;18.25;17.00;;;;;19.58;62.85;101271.03;4982310;28;45577;-69
2021/08/15 03:29:58;;;;;;;;;19.50;18.50;;;;;19.54;62.96;101263.41;5005467;28;45657;-74
2021/08/15 03:32:23;;;;;;;;;20.50;17.25;;;;;19.51;63.71;101265.63;5008390;28;46431;-74
2021/08/15 03:34:49;;;;;;;;;23.25;20.75;;;;;19.47;63.53;101262.50;5004819;28;45518;-73
2021/08/15 03:37:15;;;;;;;;;23.00;21.75;;;;;19.45;63.77;101261.06;4997336;28;45489;-69
2021/08/15 03:39:41;;;;;;;;;26.25;18.00;;;;;19.43;63.70;101255.88;5005313;28;45443;-70
2021/08/15 03:42:06;;;;;;;;;20.75;17.75;;;;;19.41;63.81;101265.13;5011452;28;52329;-74
2021/08/15 03:44:32;;;;;;;;;23.00;19.25;;;;;19.40;63.75;101264.31;5007934;28;45570;-74
2021/08/15 03:46:58;;;;;;;;;20.50;17.50;;;;;19.40;63.77;101266.16;5009241;28;45442;-69
2021/08/15 03:49:24;;;;;;;;;20.25;17.00;;;;;19.39;63.77;101269.88;5008474;28;45458;-70
2021/08/15 03:51:51;;;;;;;;;14.50;14.50;;;;;19.39;63.93;101251.94;5000090;28;45967;-68
2021/08/15 03:54:19;;;;;;;;;19.75;17.25;;;;;19.38;63.95;101252.97;5011951;28;45631;-72
2021/08/15 03:56:46;;;;;;;;;17.25;15.75;;;;;19.38;63.67;101258.31;5015785;28;45546;-71
2021/08/15 03:59:11;;;;;;;;;16.75;15.00;;;;;19.34;63.90;101260.56;5009564;28;45417;-70
2021/08/15 04:01:36;;;;;;;;;16.25;15.50;;;;;19.31;64.10;101254.75;5009984;28;55164;-71
2021/08/15 04:04:01;;;;;;;;;24.25;18.75;;;;;19.30;64.95;101256.59;5009485;28;45452;-71
2021/08/15 04:06:27;;;;;;;;;14.00;13.25;;;;;19.29;64.89;101251.47;5006668;28;45416;-71
2021/08/15 04:08:53;;;;;;;;;19.75;16.25;;;;;19.29;64.73;101254.97;5009915;28;45572;-71
2021/08/15 04:11:19;;;;;;;;;16.25;14.50;;;;;19.28;64.77;101244.44;5007586;28;46301;-72
2021/08/15 04:13:45;;;;;;;;;19.50;17.25;;;;;19.26;65.58;101255.38;5009198;28;45619;-70
2021/08/15 04:16:11;;;;;;;;;19.00;19.00;;;;;19.25;64.85;101252.88;4996139;28;45470;-71
2021/08/15 04:18:36;;;;;;;;;19.50;18.00;;;;;19.24;65.27;101256.56;4991989;28;45554;-71
2021/08/15 04:21:02;;;;;;;;;16.50;16.00;;;;;19.22;65.56;101256.75;5010246;28;45442;-74
2021/08/15 04:23:27;;;;;;;;;22.75;19.00;;;;;19.20;65.21;101258.81;5010827;28;45612;-71
2021/08/15 04:25:53;;;;;;;;;24.50;22.75;;;;;19.17;65.28;101250.34;5014626;28;45921;-71
2021/08/15 04:28:18;;;;;;;;;23.50;18.75;;;;;19.13;65.11;101253.38;5000531;28;45744;-73
2021/08/15 04:30:44;;;;;;;;;21.75;18.00;;;;;19.13;65.80;101252.56;5002503;28;47327;-70
2021/08/15 04:33:09;;;;;;;;;28.75;24.00;;;;;19.09;65.75;101241.41;5011589;28;45447;-71
2021/08/15 04:35:34;;;;;;;;;24.50;20.75;;;;;19.06;65.61;101239.09;5009031;28;45534;-71
2021/08/15 04:37:59;;;;;;;;;22.75;20.25;;;;;19.06;65.72;101240.94;5006710;28;45574;-70
2021/08/15 04:40:25;;;;;;;;;20.75;18.75;;;;;19.06;65.39;101235.59;5013427;28;45633;-71
2021/08/15 04:42:50;;;;;;;;;20.75;16.75;;;;;19.06;65.94;101241.78;4995215;28;45676;-73
2021/08/15 04:45:16;;;;;;;;;12.75;11.75;;;;;19.05;65.77;101237.44;5014651;28;45644;-73
2021/08/15 04:47:41;;;;;;;;;20.50;19.50;;;;;19.03;65.81;101234.13;5005759;28;45612;-72
2021/08/15 04:50:07;;;;;;;;;22.00;19.00;;;;;19.01;66.14;101225.44;5010478;28;46516;-69
2021/08/15 04:52:32;;;;;;;;;19.75;17.00;;;;;19.03;65.83;101228.78;5007188;28;45976;-70
2021/08/15 04:54:57;;;;;;;;;18.25;16.25;;;;;19.04;66.48;101235.81;5007474;28;46233;-72
2021/08/15 04:57:23;;;;;;;;;15.00;15.00;;;;;19.08;65.85;101236.22;5003857;28;45451;-70
2021/08/15 04:59:48;;;;;;;;;18.25;14.75;;;;;19.12;65.80;101235.66;5005673;28;47683;-70
2021/08/15 05:02:13;;;;;;;;;17.00;15.25;;;;;19.16;65.12;101238.75;5002234;28;46194;-71
2021/08/15 05:04:39;;;;;;;;;15.75;15.00;;;;;19.20;66.35;101236.53;5003429;28;45945;-73
2021/08/15 05:07:04;;;;;;;;;20.25;17.25;;;;;19.24;65.29;101240.50;5008145;28;45368;-70
2021/08/15 05:09:30;;;;;;;;;19.25;15.75;;;;;19.26;65.20;101233.06;4995779;28;45577;-72
2021/08/15 05:11:55;;;;;;;;;16.75;14.25;;;;;19.26;65.47;101233.94;5008439;28;45494;-73
2021/08/15 05:14:21;;;;;;;;;16.50;16.50;;;;;19.26;65.18;101225.03;5009063;28;45428;-71
2021/08/15 05:16:46;;;;;;;;;13.50;13.50;;;;;19.27;65.07;101232.06;5000461;28;45574;-72
2021/08/15 05:19:11;;;;;;;;;15.00;12.75;;;;;19.32;65.44;101233.13;5013030;28;46179;-70
2021/08/15 05:21:37;;;;;;;;;17.25;16.00;;;;;19.38;66.17;101234.19;5008348;28;45483;-71
2021/08/15 05:24:02;;;;;;;;;17.25;13.50;;;;;19.44;65.40;101230.75;5013795;28;45587;-71
2021/08/15 05:26:28;;;;;;;;;15.50;12.50;;;;;19.50;65.04;101224.59;5007965;28;45527;-71
2021/08/15 05:28:53;;;;;;;;;15.75;14.00;;;;;19.58;65.19;101237.00;5003258;28;45951;-70
2021/08/15 05:31:19;;;;;;;;;16.75;14.25;;;;;19.63;64.44;101226.53;5011265;28;45623;-71
2021/08/15 05:33:44;;;;;;;;;16.75;15.00;;;;;19.67;64.78;101235.88;5007264;28;45419;-71
2021/08/15 05:36:09;;;;;;;;;15.00;12.25;;;;;19.68;64.42;101231.31;4999687;28;45459;-75
2021/08/15 05:38:35;;;;;;;;;15.25;13.50;;;;;19.73;64.40;101231.56;5000487;28;46217;-75
2021/08/15 05:41:00;;;;;;;;;16.00;12.25;;;;;19.78;64.33;101231.78;4998302;28;45595;-72
2021/08/15 05:43:25;;;;;;;;;14.50;12.50;;;;;19.81;64.20;101228.75;5020653;28;46070;-72
2021/08/15 05:45:51;;;;;;;;;15.75;14.50;;;;;19.87;64.41;101230.63;5015388;28;45550;-72
2021/08/15 05:48:18;;;;;;;;;11.00;10.00;;;;;19.98;64.22;101232.75;5012573;28;46190;-72
2021/08/15 05:50:43;;;;;;;;;15.25;11.00;;;;;20.04;63.63;101219.56;5013357;28;45703;-72
2021/08/15 05:53:08;;;;;;;;;16.00;15.50;;;;;20.07;63.13;101214.59;5012738;28;45568;-72
2021/08/15 05:55:34;;;;;;;;;13.75;13.00;;;;;20.14;63.78;101220.00;5007830;28;45486;-72
2021/08/15 05:57:59;;;;;;;;;16.75;14.00;;;;;20.21;62.88;101226.22;5025849;28;46548;-75
2021/08/15 06:00:24;;;;;;;;;14.25;12.00;;;;;20.29;62.36;101227.91;5003208;28;45556;-76
2021/08/15 06:02:50;;;;;;;;;12.75;10.75;;;;;20.36;63.18;101229.56;5007718;28;45525;-73
2021/08/15 06:05:15;;;;;;;;;10.25;9.75;;;;;20.46;62.66;101223.81;4995216;28;45577;-73
2021/08/15 06:07:41;;;;;;;;;15.00;11.50;;;;;20.56;62.38;101232.34;5006276;28;46077;-76
2021/08/15 06:10:08;;;;;;;;;13.50;12.00;;;;;20.67;62.06;101233.59;5006603;28;45738;-74
2021/08/15 06:12:37;;;;;;;;;12.75;10.00;;;;;20.78;62.79;101233.00;5013151;28;46081;-78
2021/08/15 06:15:04;;;;;;;;;13.25;13.00;;;;;20.90;62.21;101224.34;5017712;28;45633;-75
2021/08/15 06:17:30;;;;;;;;;15.25;12.75;;;;;20.96;61.70;101223.50;5003168;28;46846;-71
2021/08/15 06:19:55;;;;;;;;;17.00;13.75;;;;;20.99;61.74;101223.94;4996192;28;58859;-70
2021/08/15 06:22:20;;;;;;;;;14.50;13.00;;;;;21.03;61.73;101218.97;5004047;28;45546;-75
2021/08/15 06:24:46;;;;;;;;;12.25;11.50;;;;;21.05;61.53;101214.22;5000564;28;45530;-72
2021/08/15 06:27:11;;;;;;;;;12.00;11.50;;;;;21.14;61.24;101226.44;4996289;28;45443;-71
2021/08/15 06:29:37;;;;;;;;;10.50;9.75;;;;;21.19;60.65;101218.56;5007627;28;45494;-71
2021/08/15 06:32:03;;;;;;;;;10.50;9.75;;;;;21.31;60.98;101231.34;5003116;28;45959;-73
2021/08/15 06:34:28;;;;;;;;;13.00;12.00;;;;;21.40;60.48;101219.41;5002090;28;45525;-69
2021/08/15 06:36:54;;;;;;;;;12.25;11.75;;;;;21.53;60.57;101223.91;5002366;28;46300;-71
2021/08/15 06:39:19;;;;;;;;;10.75;10.25;;;;;21.64;60.22;101220.59;5003678;28;45551;-73
2021/08/15 06:41:45;;;;;;;;;11.25;11.25;;;;;21.76;59.70;101228.81;5006940;28;46061;-73
2021/08/15 06:44:10;;;;;;;;;10.25;10.25;;;;;21.87;59.64;101220.91;4999779;28;45498;-72
2021/08/15 06:46:35;;;;;;;;;11.50;10.25;;;;;22.02;58.62;101223.34;5008014;28;46318;-73
2021/08/15 06:49:01;;;;;;;;;12.25;11.00;;;;;22.11;58.09;101218.56;5003227;28;45410;-71
2021/08/15 06:51:26;;;;;;;;;10.75;9.00;;;;;22.18;58.16;101211.28;5002224;28;45602;-72
2021/08/15 06:53:52;;;;;;;;;8.50;8.50;;;;;22.27;57.62;101214.56;5005171;28;45545;-71
2021/08/15 06:56:18;;;;;;;;;10.25;9.50;;;;;22.36;57.84;101217.84;5002826;28;45431;-69
2021/08/15 06:58:43;;;;;;;;;13.50;11.00;;;;;22.44;57.21;101213.03;5004768;28;45923;-72
2021/08/15 07:01:08;;;;;;;;;11.00;9.25;;;;;22.54;57.10;101210.69;5006148;28;45704;-72
2021/08/15 07:03:34;;;;;;;;;13.00;11.50;;;;;22.65;57.05;101205.63;5006323;28;45492;-72
2021/08/15 07:05:59;;;;;;;;;10.25;8.50;;;;;22.78;56.73;101212.81;5010222;28;47198;-73
2021/08/15 07:08:25;;;;;;;;;8.75;8.00;;;;;22.87;56.59;101215.03;5001332;28;45501;-68
2021/08/15 07:10:50;;;;;;;;;14.50;8.00;;;;;22.98;55.56;101215.41;5007281;28;45415;-71
2021/08/15 07:13:20;;;;;;;;;9.00;8.50;;;;;23.05;55.67;101214.28;5002609;28;45868;-72
2021/08/15 07:15:46;;;;;;;;;10.75;8.00;;;;;23.19;55.55;101212.28;5005069;28;46365;-72
2021/08/15 07:18:12;;;;;;;;;12.50;9.50;;;;;23.33;54.49;101211.13;5010295;28;45384;-70
2021/08/15 07:20:37;;;;;;;;;10.00;9.00;;;;;23.42;54.26;101217.06;4990696;28;45708;-70
2021/08/15 07:23:03;;;;;;;;;11.00;8.00;;;;;23.53;53.92;101223.59;5000773;28;45721;-70
2021/08/15 07:25:29;;;;;;;;;10.25;6.75;;;;;23.93;53.74;101223.16;4991617;28;47550;-70
2021/08/15 07:27:54;;;;;;;;;8.25;7.25;;;;;24.30;52.58;101223.13;4995579;28;45471;-70
2021/08/15 07:30:19;;;;;;;;;4.50;4.00;;;;;24.40;51.45;101217.97;5000252;28;45441;-70
2021/08/15 07:33:01;;;;;;;;;7.75;7.25;;;;;24.50;51.66;101223.69;5003990;28;45583;-70
2021/08/15 07:35:28;;;;;;;;;10.75;8.25;;;;;24.88;52.15;101225.22;5006749;28;45756;-71
2021/08/15 07:37:53;;;;;;;;;11.00;8.75;;;;;25.30;50.18;101223.25;5005479;28;45535;-68
2021/08/15 07:40:19;;;;;;;;;12.25;8.00;;;;;25.45;50.07;101225.50;5006386;28;45754;-67
2021/08/15 07:42:50;;;;;;;;;10.00;8.00;;;;;25.98;49.73;101223.66;5003109;28;45591;-72
2021/08/15 07:45:16;;;;;;;;;10.50;7.50;;;;;28.46;48.01;101226.13;4996386;28;47311;-70
2021/08/15 07:47:41;;;;;;;;;11.25;6.00;;;;;31.63;43.72;101210.03;5005181;28;45469;-70
2021/08/15 07:50:07;;;;;;;;;5.50;4.00;;;;;33.30;40.24;101221.19;5002971;28;45618;-71
2021/08/15 07:52:33;;;;;;;;;10.50;7.00;;;;;33.99;32.97;101222.56;4998916;28;45787;-73
2021/08/15 07:54:58;;;;;;;;;9.75;8.00;;;;;34.18;34.21;101217.13;5000934;28;45585;-67
2021/08/15 07:57:23;;;;;;;;;8.75;8.00;;;;;33.97;35.02;101221.22;5006913;28;45451;-76
2021/08/15 07:59:49;;;;;;;;;8.00;7.75;;;;;33.76;36.20;101220.69;5006993;28;45479;-73
2021/08/15 08:02:15;;;;;;;;;10.50;8.25;;;;;34.24;34.16;101209.63;5007264;28;45560;-69
2021/08/15 08:04:40;;;;;;;;;7.00;7.00;;;;;36.14;32.32;101217.94;4988607;28;45942;-74
2021/08/15 08:07:06;;;;;;;;;9.00;7.00;;;;;38.38;31.92;101217.59;5003620;28;45941;-74
2021/08/15 08:09:31;;;;;;;;;8.00;7.50;;;;;40.24;28.24;101219.75;5007478;28;45494;-73
2021/08/15 08:11:56;;;;;;;;;8.00;6.75;;;;;41.67;27.89;101219.09;5007817;28;45443;-74
2021/08/15 08:14:23;;;;;;;;;6.00;6.00;;;;;43.27;24.40;101223.91;5003968;28;47322;-73
2021/08/15 08:16:49;;;;;;;;;6.25;6.25;;;;;44.62;23.70;101219.63;5005740;28;45521;-69
2021/08/15 08:19:15;;;;;;;;;9.75;8.25;;;;;45.54;21.24;101220.75;4999618;28;45530;-73
2021/08/15 08:21:40;;;;;;;;;9.50;7.00;;;;;45.94;21.25;101222.88;4977849;28;46203;-71
2021/08/15 08:24:07;;;;;;;;;8.75;7.50;;;;;46.32;19.91;101221.75;5008412;28;45526;-70
2021/08/15 08:26:33;;;;;;;;;6.25;6.00;;;;;46.91;19.48;101213.59;5001461;28;45483;-73
2021/08/15 08:28:58;;;;;;;;;5.75;5.00;;;;;47.88;18.84;101210.59;5007509;28;45587;-69
2021/08/15 08:31:23;;;;;;;;;8.25;8.25;;;;;48.47;20.02;101213.16;5009616;28;45602;-69
2021/08/15 08:33:49;;;;;;;;;7.75;6.75;;;;;49.36;18.89;101218.00;5007707;28;45640;-72
2021/08/15 08:36:14;;;;;;;;;10.25;8.00;;;;;49.91;18.66;101211.81;5009476;28;45522;-69
2021/08/15 08:38:39;;;;;;;;;8.25;7.75;;;;;50.39;17.58;101208.34;5005426;28;45555;-74
2021/08/15 08:41:06;;;;;;;;;7.75;7.00;;;;;50.52;17.16;101205.81;5006513;28;45456;-73
2021/08/15 08:43:32;;;;;;;;;9.50;7.75;;;;;50.67;17.81;101204.47;5007696;28;45562;-71
2021/08/15 08:45:58;;;;;;;;;7.25;7.25;;;;;51.00;16.70;101215.50;5008768;28;45560;-74
2021/08/15 08:48:24;;;;;;;;;7.00;6.25;;;;;51.11;17.13;101207.75;5004816;28;45513;-74
2021/08/15 08:50:52;;;;;;;;;6.75;6.75;;;;;51.56;16.35;101205.66;5000385;28;45662;-70
2021/08/15 08:53:18;;;;;;;;;9.25;8.50;;;;;51.68;16.42;101204.28;5003584;28;45776;-70
2021/08/15 08:55:43;;;;;;;;;7.50;7.25;;;;;51.35;14.18;101206.69;5007997;28;45680;-74
2021/08/15 08:58:09;;;;;;;;;9.00;7.25;;;;;51.45;16.38;101210.63;5009074;28;45548;-70
2021/08/15 09:00:34;;;;;;;;;9.25;9.25;;;;;52.17;16.56;101216.13;5010304;28;45431;-69
2021/08/15 09:02:59;;;;;;;;;9.75;8.00;;;;;52.17;15.77;101210.50;4989461;28;46970;-71
2021/08/15 09:05:31;;;;;;;;;8.25;8.25;;;;;52.63;15.36;101202.53;5010191;28;45503;-74
2021/08/15 09:07:57;;;;;;;;;8.25;8.25;;;;;52.65;15.65;101202.88;5009132;28;45575;-74
2021/08/15 09:10:33;;;;;;;;;8.00;7.25;;;;;52.59;15.19;101196.94;5012192;28;45638;-73
2021/08/15 09:13:08;;;;;;;;;9.00;7.50;;;;;52.73;14.97;101192.34;5009801;28;46270;-72
2021/08/15 09:15:33;;;;;;;;;8.00;6.75;;;;;52.97;13.80;101193.06;5009892;28;45835;-71
2021/08/15 09:18:00;;;;;;;;;10.25;9.00;;;;;52.71;14.03;101198.38;5013634;28;45499;-73
2021/08/15 09:20:37;;;;;;;;;11.00;9.25;;;;;52.49;14.45;101191.50;5009834;28;45733;-72
2021/08/15 09:23:30;;;;;;;;;7.50;6.50;;;;;52.07;14.20;101200.19;5005057;28;45491;-74
2021/08/15 09:26:19;;;;;;;;;8.00;7.25;;;;;51.91;14.51;101188.72;5007967;28;45521;-73
2021/08/15 09:28:47;;;;;;;;;10.75;9.50;;;;;51.79;14.74;101179.63;5006599;28;45831;-74
2021/08/15 09:31:32;;;;;;;;;8.50;8.25;;;;;51.38;14.97;101171.28;5006039;28;45669;-72
2021/08/15 09:33:59;;;;;;;;;9.50;7.50;;;;;50.54;15.07;101176.09;5006900;28;47708;-70
2021/08/15 09:36:30;;;;;;;;;9.75;9.00;;;;;49.98;15.85;101166.00;5007246;28;45746;-73
2021/08/15 09:38:58;;;;;;;;;9.00;8.75;;;;;49.67;15.18;101163.78;5006016;28;45601;-70
2021/08/15 09:41:25;;;;;;;;;9.25;8.00;;;;;49.28;16.41;101158.28;5007729;28;45542;-71
2021/08/15 09:44:23;;;;;;;;;9.50;8.50;;;;;48.42;15.24;101164.75;5004035;28;47420;-73
2021/08/15 09:47:01;;;;;;;;;10.00;9.00;;;;;46.85;17.99;101158.41;5005613;28;45534;-71
2021/08/15 09:49:42;;;;;;;;;12.00;11.00;;;;;46.32;18.42;101153.94;5003282;28;45541;-71
2021/08/15 09:52:10;;;;;;;;;8.75;8.75;;;;;45.84;19.54;101149.00;5009358;28;45594;-73
2021/08/15 09:54:38;;;;;;;;;10.00;9.75;;;;;45.12;19.39;101151.97;5004745;28;45542;-73
2021/08/15 09:57:08;;;;;;;;;10.75;10.25;;;;;43.98;20.57;101143.19;5006364;28;45763;-71
2021/08/15 09:59:36;;;;;;;;;10.50;9.50;;;;;43.24;21.30;101140.44;5004712;28;45616;-74
2021/08/15 10:02:04;;;;;;;;;10.00;9.50;;;;;43.05;22.51;101138.38;5010036;28;45419;-69
2021/08/15 10:04:30;;;;;;;;;10.50;10.00;;;;;43.09;22.19;101139.25;5001627;28;45486;-70
2021/08/15 10:06:56;;;;;;;;;12.00;9.00;;;;;43.23;22.77;101130.44;4984921;28;45464;-73
2021/08/15 10:09:26;;;;;;;;;14.25;12.00;;;;;43.23;21.64;101136.84;5016986;28;45530;-73
2021/08/15 11:07:02;;;;;;;;;12.50;10.00;;;;;41.91;20.85;101067.56;4902225;23;76016;-69
2021/08/15 11:09:53;;;;;;;;;13.25;10.25;;;;;41.46;23.24;101063.91;4900892;28;45547;-75
2021/08/15 11:12:19;;;;;;;;;8.75;8.50;;;;;41.36;22.91;101063.63;4909453;28;45567;-69
2021/08/15 11:15:06;;;;;;;;;12.00;12.00;;;;;41.25;23.25;101057.78;4908354;28;45384;-68
2021/08/15 11:17:34;;;;;;;;;11.00;10.00;;;;;41.23;22.88;101052.56;4896593;28;46475;-75
2021/08/15 11:20:35;;;;;;;;;9.25;8.25;;;;;41.45;23.34;101048.47;4908294;28;45536;-72
2021/08/15 11:23:12;;;;;;;;;12.50;10.50;;;;;42.04;23.45;101046.97;4906601;28;45718;-71
2021/08/15 11:25:39;;;;;;;;;9.00;9.00;;;;;42.63;23.25;101039.72;4904050;28;45608;-72
2021/08/15 11:28:04;;;;;;;;;9.00;9.00;;;;;43.05;22.05;101044.66;4907305;28;45678;-74
2021/08/15 11:30:30;;;;;;;;;12.00;10.00;;;;;43.27;21.32;101042.38;4910906;28;45515;-71
2021/08/15 11:32:59;;;;;;;;;8.00;6.50;;;;;43.43;21.56;101037.56;4916552;28;45587;-71
2021/08/15 11:35:33;;;;;;;;;8.75;7.00;;;;;43.52;22.44;101040.91;4908168;28;45623;-71
2021/08/15 11:37:59;;;;;;;;;10.00;8.50;;;;;43.28;23.18;101044.00;4907417;28;47228;-74
2021/08/15 11:40:29;;;;;;;;;10.75;8.50;;;;;42.79;20.09;101039.72;4909470;28;45607;-77
2021/08/15 11:43:00;;;;;;;;;9.25;9.25;;;;;42.47;22.93;101039.75;4910099;28;45558;-74
2021/08/15 11:45:28;;;;;;;;;10.00;9.00;;;;;42.30;22.31;101032.53;4910807;28;45453;-70
2021/08/15 11:47:54;;;;;;;;;9.50;8.00;;;;;42.35;23.07;101030.69;4902372;28;45529;-72
2021/08/15 11:50:21;;;;;;;;;6.50;6.50;;;;;42.20;21.61;101024.75;4907110;28;45639;-75
2021/08/15 11:52:48;;;;;;;;;10.50;9.00;;;;;42.38;22.79;101032.75;4907132;28;45640;-76
2021/08/15 11:55:26;;;;;;;;;7.50;7.50;;;;;42.48;23.55;101018.31;4903766;28;45571;-74
2021/08/15 11:57:54;;;;;;;;;10.25;7.75;;;;;42.79;23.00;101027.81;4898688;28;45622;-70
2021/08/15 12:00:26;;;;;;;;;8.25;7.00;;;;;42.52;23.25;101031.13;4909497;28;45725;-74
2021/08/15 12:03:02;;;;;;;;;9.25;7.75;;;;;42.73;23.37;101018.91;4915357;28;45429;-70
2021/08/15 12:05:28;;;;;;;;;8.25;8.25;;;;;42.96;23.28;101016.28;4910436;28;45498;-74
2021/08/15 12:08:02;;;;;;;;;10.75;8.50;;;;;43.15;22.36;101018.28;4908395;28;45770;-71